sensor_id;sensor_type;location;lat;lon;timestamp;P1;durP1;ratioP1;P2;durP2;ratioP2
29030;SDS011;16122;50.236;11.734;2023-02-28T00:00:27;1.40;;;1.30;;
29030;SDS011;16122;50.236;11.734;2023-02-28T00:02:53;1.40;;;1.20;;
29030;SDS011;16122;50.236;11.734;2023-02-28T00:05:20;2.83;;;1.10;;
29030;SDS011;16122;50.236;11.734;2023-02-28T00:07:47;1.20;;;1.00;;
29030;SDS011;16122;50.236;11.734;2023-02-28T00:10:15;1.20;;;1.10;;
29030;SDS011;16122;50.236;11.734;2023-02-28T00:12:49;1.27;;;1.17;;
29030;SDS011;16122;50.236;11.734;2023-02-28T00:15:16;1.27;;;1.17;;
29030;SDS011;16122;50.236;11.734;2023-02-28T00:17:42;0.90;;;0.90;;
29030;SDS011;16122;50.236;11.734;2023-02-28T00:20:09;1.27;;;1.10;;
29030;SDS011;16122;50.236;11.734;2023-02-28T00:22:43;1.30;;;1.20;;
29030;SDS011;16122;50.236;11.734;2023-02-28T00:25:12;1.33;;;1.10;;
29030;SDS011;16122;50.236;11.734;2023-02-28T00:27:40;1.20;;;1.10;;
29030;SDS011;16122;50.236;11.734;2023-02-28T00:30:08;1.33;;;1.23;;
29030;SDS011;16122;50.236;11.734;2023-02-28T00:32:36;1.30;;;1.20;;
29030;SDS011;16122;50.236;11.734;2023-02-28T00:35:02;1.57;;;1.40;;
29030;SDS011;16122;50.236;11.734;2023-02-28T00:37:29;1.40;;;1.30;;
29030;SDS011;16122;50.236;11.734;2023-02-28T00:39:55;1.50;;;1.30;;
29030;SDS011;16122;50.236;11.734;2023-02-28T00:42:22;1.30;;;0.90;;
29030;SDS011;16122;50.236;11.734;2023-02-28T00:44:48;1.10;;;1.00;;
29030;SDS011;16122;50.236;11.734;2023-02-28T00:47:14;1.30;;;1.10;;
29030;SDS011;16122;50.236;11.734;2023-02-28T00:49:41;1.67;;;1.43;;
29030;SDS011;16122;50.236;11.734;2023-02-28T00:52:08;1.90;;;1.10;;
29030;SDS011;16122;50.236;11.734;2023-02-28T00:54:34;1.47;;;1.20;;
29030;SDS011;16122;50.236;11.734;2023-02-28T00:57:00;1.37;;;1.27;;
29030;SDS011;16122;50.236;11.734;2023-02-28T00:59:26;1.30;;;1.20;;
29030;SDS011;16122;50.236;11.734;2023-02-28T01:01:52;1.20;;;1.10;;
29030;SDS011;16122;50.236;11.734;2023-02-28T01:04:18;1.30;;;1.20;;
29030;SDS011;16122;50.236;11.734;2023-02-28T01:06:43;1.20;;;1.10;;
29030;SDS011;16122;50.236;11.734;2023-02-28T01:09:10;1.23;;;1.13;;
29030;SDS011;16122;50.236;11.734;2023-02-28T01:11:36;1.00;;;1.00;;
29030;SDS011;16122;50.236;11.734;2023-02-28T01:14:02;1.40;;;1.10;;
29030;SDS011;16122;50.236;11.734;2023-02-28T01:16:29;1.50;;;1.40;;
29030;SDS011;16122;50.236;11.734;2023-02-28T01:18:55;2.20;;;1.40;;
29030;SDS011;16122;50.236;11.734;2023-02-28T01:21:21;0.90;;;0.90;;
29030;SDS011;16122;50.236;11.734;2023-02-28T01:23:47;1.17;;;1.07;;
29030;SDS011;16122;50.236;11.734;2023-02-28T01:26:15;1.23;;;1.13;;
29030;SDS011;16122;50.236;11.734;2023-02-28T01:28:45;3.07;;;1.27;;
29030;SDS011;16122;50.236;11.734;2023-02-28T01:31:13;1.23;;;1.13;;
29030;SDS011;16122;50.236;11.734;2023-02-28T01:33:39;1.27;;;1.17;;
29030;SDS011;16122;50.236;11.734;2023-02-28T01:36:06;1.00;;;0.90;;
29030;SDS011;16122;50.236;11.734;2023-02-28T01:38:41;1.20;;;1.10;;
29030;SDS011;16122;50.236;11.734;2023-02-28T01:41:07;1.20;;;1.03;;
29030;SDS011;16122;50.236;11.734;2023-02-28T01:46:11;1.33;;;1.23;;
29030;SDS011;16122;50.236;11.734;2023-02-28T01:48:38;1.30;;;1.13;;
29030;SDS011;16122;50.236;11.734;2023-02-28T01:51:13;1.33;;;1.23;;
29030;SDS011;16122;50.236;11.734;2023-02-28T01:53:48;1.43;;;0.90;;
29030;SDS011;16122;50.236;11.734;2023-02-28T01:56:19;1.20;;;1.10;;
29030;SDS011;16122;50.236;11.734;2023-02-28T01:58:49;1.70;;;1.20;;
29030;SDS011;16122;50.236;11.734;2023-02-28T02:01:17;1.20;;;1.10;;
29030;SDS011;16122;50.236;11.734;2023-02-28T02:03:51;1.30;;;1.03;;
29030;SDS011;16122;50.236;11.734;2023-02-28T02:06:25;1.00;;;0.90;;
29030;SDS011;16122;50.236;11.734;2023-02-28T02:08:53;1.20;;;1.10;;
29030;SDS011;16122;50.236;11.734;2023-02-28T02:11:20;1.10;;;1.07;;
29030;SDS011;16122;50.236;11.734;2023-02-28T02:31:04;1.10;;;1.00;;
29030;SDS011;16122;50.236;11.734;2023-02-28T02:37:33;1.20;;;1.10;;
29030;SDS011;16122;50.236;11.734;2023-02-28T02:39:53;1.20;;;1.10;;
29030;SDS011;16122;50.236;11.734;2023-02-28T02:42:44;1.20;;;1.03;;
29030;SDS011;16122;50.236;11.734;2023-02-28T02:48:12;1.23;;;1.07;;
29030;SDS011;16122;50.236;11.734;2023-02-28T02:50:52;1.20;;;1.10;;
29030;SDS011;16122;50.236;11.734;2023-02-28T02:53:27;1.40;;;1.30;;
29030;SDS011;16122;50.236;11.734;2023-02-28T02:56:03;1.57;;;1.03;;
29030;SDS011;16122;50.236;11.734;2023-02-28T02:58:33;1.30;;;1.20;;
29030;SDS011;16122;50.236;11.734;2023-02-28T03:01:10;1.50;;;1.37;;
29030;SDS011;16122;50.236;11.734;2023-02-28T03:03:39;1.70;;;1.30;;
29030;SDS011;16122;50.236;11.734;2023-02-28T03:06:06;2.30;;;1.30;;
29030;SDS011;16122;50.236;11.734;2023-02-28T03:08:36;1.30;;;1.20;;
29030;SDS011;16122;50.236;11.734;2023-02-28T03:11:04;1.50;;;1.40;;
29030;SDS011;16122;50.236;11.734;2023-02-28T03:13:42;1.20;;;1.10;;
29030;SDS011;16122;50.236;11.734;2023-02-28T03:24:45;1.20;;;1.10;;
29030;SDS011;16122;50.236;11.734;2023-02-28T03:27:31;1.00;;;0.90;;
29030;SDS011;16122;50.236;11.734;2023-02-28T03:30:14;1.20;;;1.10;;
29030;SDS011;16122;50.236;11.734;2023-02-28T03:33:03;1.50;;;1.40;;
29030;SDS011;16122;50.236;11.734;2023-02-28T03:35:37;1.17;;;1.07;;
29030;SDS011;16122;50.236;11.734;2023-02-28T03:38:09;1.70;;;1.60;;
29030;SDS011;16122;50.236;11.734;2023-02-28T03:40:47;1.20;;;1.10;;
29030;SDS011;16122;50.236;11.734;2023-02-28T03:43:20;1.40;;;1.30;;
29030;SDS011;16122;50.236;11.734;2023-02-28T03:45:50;1.40;;;1.30;;
29030;SDS011;16122;50.236;11.734;2023-02-28T03:48:25;1.77;;;1.23;;
29030;SDS011;16122;50.236;11.734;2023-02-28T03:50:57;1.30;;;1.20;;
29030;SDS011;16122;50.236;11.734;2023-02-28T03:53:27;1.23;;;1.13;;
29030;SDS011;16122;50.236;11.734;2023-02-28T03:58:29;1.10;;;1.00;;
29030;SDS011;16122;50.236;11.734;2023-02-28T04:01:20;1.23;;;1.10;;
29030;SDS011;16122;50.236;11.734;2023-02-28T04:03:50;1.50;;;1.20;;
29030;SDS011;16122;50.236;11.734;2023-02-28T04:06:21;1.30;;;1.20;;
29030;SDS011;16122;50.236;11.734;2023-02-28T04:08:48;1.57;;;1.47;;
29030;SDS011;16122;50.236;11.734;2023-02-28T04:13:52;1.17;;;1.07;;
29030;SDS011;16122;50.236;11.734;2023-02-28T04:16:18;2.03;;;1.50;;
29030;SDS011;16122;50.236;11.734;2023-02-28T04:18:44;1.23;;;1.13;;
29030;SDS011;16122;50.236;11.734;2023-02-28T04:21:10;1.30;;;1.20;;
29030;SDS011;16122;50.236;11.734;2023-02-28T04:23:37;1.70;;;1.60;;
29030;SDS011;16122;50.236;11.734;2023-02-28T04:26:03;1.43;;;1.27;;
29030;SDS011;16122;50.236;11.734;2023-02-28T04:28:29;1.27;;;1.17;;
29030;SDS011;16122;50.236;11.734;2023-02-28T04:30:59;1.37;;;1.10;;
29030;SDS011;16122;50.236;11.734;2023-02-28T04:33:30;1.40;;;1.30;;
29030;SDS011;16122;50.236;11.734;2023-02-28T04:36:15;1.20;;;1.10;;
29030;SDS011;16122;50.236;11.734;2023-02-28T04:38:43;1.40;;;1.30;;
29030;SDS011;16122;50.236;11.734;2023-02-28T04:41:09;1.30;;;1.20;;
29030;SDS011;16122;50.236;11.734;2023-02-28T04:43:35;1.50;;;1.40;;
29030;SDS011;16122;50.236;11.734;2023-02-28T04:46:02;1.37;;;1.23;;
29030;SDS011;16122;50.236;11.734;2023-02-28T04:48:29;1.30;;;1.20;;
29030;SDS011;16122;50.236;11.734;2023-02-28T04:51:00;1.60;;;1.50;;
29030;SDS011;16122;50.236;11.734;2023-02-28T04:53:31;1.40;;;1.30;;
29030;SDS011;16122;50.236;11.734;2023-02-28T04:55:57;1.17;;;1.07;;
29030;SDS011;16122;50.236;11.734;2023-02-28T04:58:23;2.87;;;1.30;;
29030;SDS011;16122;50.236;11.734;2023-02-28T05:00:52;2.30;;;1.27;;
29030;SDS011;16122;50.236;11.734;2023-02-28T05:03:19;1.40;;;1.30;;
29030;SDS011;16122;50.236;11.734;2023-02-28T05:05:47;1.23;;;1.13;;
29030;SDS011;16122;50.236;11.734;2023-02-28T05:08:13;1.47;;;1.33;;
29030;SDS011;16122;50.236;11.734;2023-02-28T05:10:39;1.30;;;1.20;;
29030;SDS011;16122;50.236;11.734;2023-02-28T05:13:05;1.63;;;1.13;;
29030;SDS011;16122;50.236;11.734;2023-02-28T05:15:30;1.50;;;1.40;;
29030;SDS011;16122;50.236;11.734;2023-02-28T05:17:56;1.33;;;1.23;;
29030;SDS011;16122;50.236;11.734;2023-02-28T05:20:22;2.13;;;1.60;;
29030;SDS011;16122;50.236;11.734;2023-02-28T05:22:49;2.73;;;1.43;;
29030;SDS011;16122;50.236;11.734;2023-02-28T05:25:16;1.93;;;1.40;;
29030;SDS011;16122;50.236;11.734;2023-02-28T05:27:43;1.60;;;1.50;;
29030;SDS011;16122;50.236;11.734;2023-02-28T05:30:09;1.40;;;1.27;;
29030;SDS011;16122;50.236;11.734;2023-02-28T05:32:36;1.70;;;1.30;;
29030;SDS011;16122;50.236;11.734;2023-02-28T05:35:08;3.43;;;1.30;;
29030;SDS011;16122;50.236;11.734;2023-02-28T05:37:36;2.83;;;1.73;;
29030;SDS011;16122;50.236;11.734;2023-02-28T05:40:03;2.53;;;1.53;;
29030;SDS011;16122;50.236;11.734;2023-02-28T05:42:32;1.63;;;1.53;;
29030;SDS011;16122;50.236;11.734;2023-02-28T05:44:58;1.77;;;1.50;;
29030;SDS011;16122;50.236;11.734;2023-02-28T05:47:24;2.13;;;1.20;;
29030;SDS011;16122;50.236;11.734;2023-02-28T05:49:50;1.40;;;1.30;;
29030;SDS011;16122;50.236;11.734;2023-02-28T05:52:16;2.73;;;1.50;;
29030;SDS011;16122;50.236;11.734;2023-02-28T05:54:42;3.53;;;1.33;;
29030;SDS011;16122;50.236;11.734;2023-02-28T05:57:08;3.30;;;1.30;;
29030;SDS011;16122;50.236;11.734;2023-02-28T05:59:34;1.30;;;1.20;;
29030;SDS011;16122;50.236;11.734;2023-02-28T06:02:00;1.67;;;1.40;;
29030;SDS011;16122;50.236;11.734;2023-02-28T06:04:26;2.10;;;1.50;;
29030;SDS011;16122;50.236;11.734;2023-02-28T06:06:53;3.77;;;1.60;;
29030;SDS011;16122;50.236;11.734;2023-02-28T06:09:19;2.87;;;1.73;;
29030;SDS011;16122;50.236;11.734;2023-02-28T06:11:45;1.87;;;1.57;;
29030;SDS011;16122;50.236;11.734;2023-02-28T06:14:15;2.50;;;1.40;;
29030;SDS011;16122;50.236;11.734;2023-02-28T06:16:41;2.07;;;1.70;;
29030;SDS011;16122;50.236;11.734;2023-02-28T06:19:08;2.03;;;1.30;;
29030;SDS011;16122;50.236;11.734;2023-02-28T06:21:34;2.00;;;1.50;;
29030;SDS011;16122;50.236;11.734;2023-02-28T06:24:01;1.53;;;1.43;;
29030;SDS011;16122;50.236;11.734;2023-02-28T06:26:28;1.70;;;1.47;;
29030;SDS011;16122;50.236;11.734;2023-02-28T06:28:55;1.93;;;1.70;;
29030;SDS011;16122;50.236;11.734;2023-02-28T06:31:22;2.30;;;1.73;;
29030;SDS011;16122;50.236;11.734;2023-02-28T06:33:49;1.40;;;1.30;;
29030;SDS011;16122;50.236;11.734;2023-02-28T06:36:15;1.60;;;1.50;;
29030;SDS011;16122;50.236;11.734;2023-02-28T06:38:42;1.57;;;1.23;;
29030;SDS011;16122;50.236;11.734;2023-02-28T06:41:08;1.30;;;1.20;;
29030;SDS011;16122;50.236;11.734;2023-02-28T06:43:37;1.60;;;1.50;;
29030;SDS011;16122;50.236;11.734;2023-02-28T06:46:06;1.60;;;1.50;;
29030;SDS011;16122;50.236;11.734;2023-02-28T06:48:34;1.50;;;1.40;;
29030;SDS011;16122;50.236;11.734;2023-02-28T06:51:09;2.40;;;1.57;;
29030;SDS011;16122;50.236;11.734;2023-02-28T06:53:38;2.13;;;1.60;;
29030;SDS011;16122;50.236;11.734;2023-02-28T06:56:05;3.77;;;1.70;;
29030;SDS011;16122;50.236;11.734;2023-02-28T06:58:35;1.60;;;1.50;;
29030;SDS011;16122;50.236;11.734;2023-02-28T07:01:02;4.13;;;1.50;;
29030;SDS011;16122;50.236;11.734;2023-02-28T07:03:29;1.50;;;1.40;;
29030;SDS011;16122;50.236;11.734;2023-02-28T07:05:55;2.20;;;1.67;;
29030;SDS011;16122;50.236;11.734;2023-02-28T07:08:22;2.50;;;1.60;;
29030;SDS011;16122;50.236;11.734;2023-02-28T07:10:51;2.53;;;1.37;;
29030;SDS011;16122;50.236;11.734;2023-02-28T07:13:18;1.40;;;1.30;;
29030;SDS011;16122;50.236;11.734;2023-02-28T07:15:44;1.33;;;1.23;;
29030;SDS011;16122;50.236;11.734;2023-02-28T07:18:09;1.50;;;1.40;;
29030;SDS011;16122;50.236;11.734;2023-02-28T07:20:35;1.93;;;1.83;;
29030;SDS011;16122;50.236;11.734;2023-02-28T07:23:01;1.67;;;1.43;;
29030;SDS011;16122;50.236;11.734;2023-02-28T07:25:27;2.20;;;1.10;;
29030;SDS011;16122;50.236;11.734;2023-02-28T07:27:54;1.70;;;1.60;;
29030;SDS011;16122;50.236;11.734;2023-02-28T07:30:21;1.80;;;1.70;;
29030;SDS011;16122;50.236;11.734;2023-02-28T07:32:46;2.10;;;1.60;;
29030;SDS011;16122;50.236;11.734;2023-02-28T07:35:12;1.93;;;1.60;;
29030;SDS011;16122;50.236;11.734;2023-02-28T07:37:41;1.93;;;1.60;;
29030;SDS011;16122;50.236;11.734;2023-02-28T07:40:08;2.47;;;1.73;;
29030;SDS011;16122;50.236;11.734;2023-02-28T07:42:39;1.83;;;1.67;;
29030;SDS011;16122;50.236;11.734;2023-02-28T07:45:05;2.00;;;1.80;;
29030;SDS011;16122;50.236;11.734;2023-02-28T07:47:32;1.70;;;1.60;;
29030;SDS011;16122;50.236;11.734;2023-02-28T07:49:58;1.43;;;1.30;;
29030;SDS011;16122;50.236;11.734;2023-02-28T07:52:24;1.50;;;1.40;;
29030;SDS011;16122;50.236;11.734;2023-02-28T07:54:50;1.57;;;1.47;;
29030;SDS011;16122;50.236;11.734;2023-02-28T07:57:16;2.37;;;1.33;;
29030;SDS011;16122;50.236;11.734;2023-02-28T07:59:42;4.33;;;1.27;;
29030;SDS011;16122;50.236;11.734;2023-02-28T08:02:11;1.67;;;1.57;;
29030;SDS011;16122;50.236;11.734;2023-02-28T08:04:42;2.43;;;1.50;;
29030;SDS011;16122;50.236;11.734;2023-02-28T08:07:08;1.30;;;1.20;;
29030;SDS011;16122;50.236;11.734;2023-02-28T08:09:38;2.23;;;1.60;;
29030;SDS011;16122;50.236;11.734;2023-02-28T08:12:05;1.50;;;1.40;;
29030;SDS011;16122;50.236;11.734;2023-02-28T08:14:32;1.67;;;1.57;;
29030;SDS011;16122;50.236;11.734;2023-02-28T08:16:59;1.57;;;1.33;;
29030;SDS011;16122;50.236;11.734;2023-02-28T08:19:25;1.63;;;1.53;;
29030;SDS011;16122;50.236;11.734;2023-02-28T08:21:51;1.63;;;1.53;;
29030;SDS011;16122;50.236;11.734;2023-02-28T08:24:17;1.77;;;1.60;;
29030;SDS011;16122;50.236;11.734;2023-02-28T08:26:43;2.00;;;1.80;;
29030;SDS011;16122;50.236;11.734;2023-02-28T08:29:08;1.90;;;1.67;;
29030;SDS011;16122;50.236;11.734;2023-02-28T08:31:34;3.73;;;1.80;;
29030;SDS011;16122;50.236;11.734;2023-02-28T08:34:09;2.60;;;1.60;;
29030;SDS011;16122;50.236;11.734;2023-02-28T08:36:37;1.60;;;1.50;;
29030;SDS011;16122;50.236;11.734;2023-02-28T08:39:04;2.20;;;2.00;;
29030;SDS011;16122;50.236;11.734;2023-02-28T08:41:30;5.40;;;1.67;;
29030;SDS011;16122;50.236;11.734;2023-02-28T08:43:56;2.50;;;1.73;;
29030;SDS011;16122;50.236;11.734;2023-02-28T08:46:22;1.83;;;1.73;;
29030;SDS011;16122;50.236;11.734;2023-02-28T08:48:51;2.00;;;1.80;;
29030;SDS011;16122;50.236;11.734;2023-02-28T08:51:18;1.93;;;1.70;;
29030;SDS011;16122;50.236;11.734;2023-02-28T08:53:47;2.90;;;2.37;;
29030;SDS011;16122;50.236;11.734;2023-02-28T08:56:14;1.70;;;1.60;;
29030;SDS011;16122;50.236;11.734;2023-02-28T08:58:42;3.07;;;1.67;;
29030;SDS011;16122;50.236;11.734;2023-02-28T09:01:09;2.00;;;1.70;;
29030;SDS011;16122;50.236;11.734;2023-02-28T09:03:37;2.83;;;1.77;;
29030;SDS011;16122;50.236;11.734;2023-02-28T09:06:03;1.97;;;1.87;;
29030;SDS011;16122;50.236;11.734;2023-02-28T09:08:30;1.70;;;1.60;;
29030;SDS011;16122;50.236;11.734;2023-02-28T09:10:56;1.60;;;1.43;;
29030;SDS011;16122;50.236;11.734;2023-02-28T09:13:23;1.80;;;1.70;;
29030;SDS011;16122;50.236;11.734;2023-02-28T09:15:50;4.50;;;1.90;;
29030;SDS011;16122;50.236;11.734;2023-02-28T09:18:16;1.73;;;1.63;;
29030;SDS011;16122;50.236;11.734;2023-02-28T09:20:42;1.93;;;1.70;;
29030;SDS011;16122;50.236;11.734;2023-02-28T09:23:10;1.80;;;1.70;;
29030;SDS011;16122;50.236;11.734;2023-02-28T09:25:37;2.30;;;1.63;;
29030;SDS011;16122;50.236;11.734;2023-02-28T09:28:03;2.63;;;1.90;;
29030;SDS011;16122;50.236;11.734;2023-02-28T09:30:29;4.30;;;1.60;;
29030;SDS011;16122;50.236;11.734;2023-02-28T09:32:56;2.50;;;1.97;;
29030;SDS011;16122;50.236;11.734;2023-02-28T09:35:22;2.63;;;1.80;;
29030;SDS011;16122;50.236;11.734;2023-02-28T09:37:50;2.20;;;2.03;;
29030;SDS011;16122;50.236;11.734;2023-02-28T09:40:17;1.50;;;1.40;;
29030;SDS011;16122;50.236;11.734;2023-02-28T09:42:49;3.03;;;1.93;;
29030;SDS011;16122;50.236;11.734;2023-02-28T09:47:49;3.53;;;2.10;;
29030;SDS011;16122;50.236;11.734;2023-02-28T09:50:18;3.10;;;1.90;;
29030;SDS011;16122;50.236;11.734;2023-02-28T09:53:02;2.27;;;2.07;;
29030;SDS011;16122;50.236;11.734;2023-02-28T09:55:39;2.00;;;1.90;;
29030;SDS011;16122;50.236;11.734;2023-02-28T09:58:17;1.77;;;1.67;;
29030;SDS011;16122;50.236;11.734;2023-02-28T10:01:10;1.83;;;1.73;;
29030;SDS011;16122;50.236;11.734;2023-02-28T10:03:56;1.70;;;1.60;;
29030;SDS011;16122;50.236;11.734;2023-02-28T10:06:30;2.03;;;1.60;;
29030;SDS011;16122;50.236;11.734;2023-02-28T10:09:05;1.83;;;1.60;;
29030;SDS011;16122;50.236;11.734;2023-02-28T10:11:40;2.07;;;1.60;;
29030;SDS011;16122;50.236;11.734;2023-02-28T10:14:15;1.80;;;1.70;;
29030;SDS011;16122;50.236;11.734;2023-02-28T10:16:45;2.43;;;2.00;;
29030;SDS011;16122;50.236;11.734;2023-02-28T10:21:56;3.30;;;2.37;;
29030;SDS011;16122;50.236;11.734;2023-02-28T10:26:56;5.50;;;1.80;;
29030;SDS011;16122;50.236;11.734;2023-02-28T10:29:27;2.10;;;1.77;;
29030;SDS011;16122;50.236;11.734;2023-02-28T10:31:58;2.43;;;1.90;;
29030;SDS011;16122;50.236;11.734;2023-02-28T10:34:28;1.70;;;1.60;;
29030;SDS011;16122;50.236;11.734;2023-02-28T10:36:54;1.77;;;1.67;;
29030;SDS011;16122;50.236;11.734;2023-02-28T10:39:34;2.40;;;2.20;;
29030;SDS011;16122;50.236;11.734;2023-02-28T10:42:00;2.07;;;1.87;;
29030;SDS011;16122;50.236;11.734;2023-02-28T10:44:26;2.33;;;2.13;;
29030;SDS011;16122;50.236;11.734;2023-02-28T10:46:52;2.07;;;1.90;;
29030;SDS011;16122;50.236;11.734;2023-02-28T10:49:25;3.47;;;2.00;;
29030;SDS011;16122;50.236;11.734;2023-02-28T10:51:54;2.30;;;2.00;;
29030;SDS011;16122;50.236;11.734;2023-02-28T10:57:18;1.97;;;1.77;;
29030;SDS011;16122;50.236;11.734;2023-02-28T10:59:44;2.13;;;1.97;;
29030;SDS011;16122;50.236;11.734;2023-02-28T11:05:29;2.70;;;1.97;;
29030;SDS011;16122;50.236;11.734;2023-02-28T11:07:59;4.93;;;3.00;;
29030;SDS011;16122;50.236;11.734;2023-02-28T11:10:47;2.27;;;2.07;;
29030;SDS011;16122;50.236;11.734;2023-02-28T11:13:42;2.30;;;2.00;;
29030;SDS011;16122;50.236;11.734;2023-02-28T11:16:11;2.37;;;1.80;;
29030;SDS011;16122;50.236;11.734;2023-02-28T11:18:54;2.30;;;2.10;;
29030;SDS011;16122;50.236;11.734;2023-02-28T11:21:25;2.13;;;1.70;;
29030;SDS011;16122;50.236;11.734;2023-02-28T11:24:16;2.17;;;2.00;;
29030;SDS011;16122;50.236;11.734;2023-02-28T11:26:53;3.90;;;2.20;;
29030;SDS011;16122;50.236;11.734;2023-02-28T11:34:30;2.40;;;1.80;;
29030;SDS011;16122;50.236;11.734;2023-02-28T11:36:57;16.23;;;2.00;;
29030;SDS011;16122;50.236;11.734;2023-02-28T11:39:26;2.87;;;2.00;;
29030;SDS011;16122;50.236;11.734;2023-02-28T13:34:31;1.90;;;1.80;;
29030;SDS011;16122;50.236;11.734;2023-02-28T13:52:46;3.70;;;2.17;;
29030;SDS011;16122;50.236;11.734;2023-02-28T14:05:47;4.43;;;2.30;;
29030;SDS011;16122;50.236;11.734;2023-02-28T14:08:32;2.63;;;2.00;;
29030;SDS011;16122;50.236;11.734;2023-02-28T14:11:06;2.20;;;2.00;;
29030;SDS011;16122;50.236;11.734;2023-02-28T14:13:48;2.20;;;2.00;;
29030;SDS011;16122;50.236;11.734;2023-02-28T14:16:24;2.33;;;2.13;;
29030;SDS011;16122;50.236;11.734;2023-02-28T14:18:58;4.70;;;2.37;;
29030;SDS011;16122;50.236;11.734;2023-02-28T14:21:36;2.00;;;1.80;;
29030;SDS011;16122;50.236;11.734;2023-02-28T14:37:42;2.07;;;1.97;;
29030;SDS011;16122;50.236;11.734;2023-02-28T14:40:13;2.90;;;2.03;;
29030;SDS011;16122;50.236;11.734;2023-02-28T14:42:47;2.23;;;2.03;;
29030;SDS011;16122;50.236;11.734;2023-02-28T14:45:20;2.13;;;1.90;;
29030;SDS011;16122;50.236;11.734;2023-02-28T14:47:47;2.40;;;2.17;;
29030;SDS011;16122;50.236;11.734;2023-02-28T14:50:22;2.90;;;1.73;;
29030;SDS011;16122;50.236;11.734;2023-02-28T14:53:00;2.93;;;2.00;;
29030;SDS011;16122;50.236;11.734;2023-02-28T14:55:31;13.10;;;2.20;;
29030;SDS011;16122;50.236;11.734;2023-02-28T14:58:03;1.77;;;1.67;;
29030;SDS011;16122;50.236;11.734;2023-02-28T15:00:35;2.80;;;2.17;;
29030;SDS011;16122;50.236;11.734;2023-02-28T15:03:27;2.67;;;1.90;;
29030;SDS011;16122;50.236;11.734;2023-02-28T15:05:59;3.63;;;2.07;;
29030;SDS011;16122;50.236;11.734;2023-02-28T15:08:30;2.33;;;2.13;;
29030;SDS011;16122;50.236;11.734;2023-02-28T15:11:07;2.00;;;1.90;;
29030;SDS011;16122;50.236;11.734;2023-02-28T15:13:44;2.60;;;1.83;;
29030;SDS011;16122;50.236;11.734;2023-02-28T15:16:13;2.70;;;2.20;;
29030;SDS011;16122;50.236;11.734;2023-02-28T15:21:21;3.00;;;1.80;;
29030;SDS011;16122;50.236;11.734;2023-02-28T15:23:58;4.80;;;2.10;;
29030;SDS011;16122;50.236;11.734;2023-02-28T15:26:33;2.80;;;2.10;;
29030;SDS011;16122;50.236;11.734;2023-02-28T15:29:07;2.90;;;2.10;;
29030;SDS011;16122;50.236;11.734;2023-02-28T15:31:46;2.47;;;2.27;;
29030;SDS011;16122;50.236;11.734;2023-02-28T15:34:22;3.67;;;2.60;;
29030;SDS011;16122;50.236;11.734;2023-02-28T15:39:52;1.97;;;1.83;;
29030;SDS011;16122;50.236;11.734;2023-02-28T15:42:20;2.00;;;1.87;;
29030;SDS011;16122;50.236;11.734;2023-02-28T15:44:47;2.50;;;2.27;;
29030;SDS011;16122;50.236;11.734;2023-02-28T15:52:17;2.60;;;2.40;;
29030;SDS011;16122;50.236;11.734;2023-02-28T15:54:45;3.37;;;2.43;;
29030;SDS011;16122;50.236;11.734;2023-02-28T15:57:18;2.30;;;2.10;;
29030;SDS011;16122;50.236;11.734;2023-02-28T15:59:54;2.47;;;2.27;;
29030;SDS011;16122;50.236;11.734;2023-02-28T16:02:36;2.40;;;2.13;;
29030;SDS011;16122;50.236;11.734;2023-02-28T16:07:34;3.00;;;2.70;;
29030;SDS011;16122;50.236;11.734;2023-02-28T16:10:02;2.40;;;2.10;;
29030;SDS011;16122;50.236;11.734;2023-02-28T16:12:29;2.77;;;2.20;;
29030;SDS011;16122;50.236;11.734;2023-02-28T16:14:57;2.80;;;2.60;;
29030;SDS011;16122;50.236;11.734;2023-02-28T16:17:27;2.57;;;2.37;;
29030;SDS011;16122;50.236;11.734;2023-02-28T16:19:54;2.80;;;2.60;;
29030;SDS011;16122;50.236;11.734;2023-02-28T16:22:20;4.60;;;2.50;;
29030;SDS011;16122;50.236;11.734;2023-02-28T16:24:46;2.90;;;2.60;;
29030;SDS011;16122;50.236;11.734;2023-02-28T16:27:15;3.00;;;2.57;;
29030;SDS011;16122;50.236;11.734;2023-02-28T16:29:42;3.40;;;2.50;;
29030;SDS011;16122;50.236;11.734;2023-02-28T16:32:07;2.43;;;2.30;;
29030;SDS011;16122;50.236;11.734;2023-02-28T16:34:37;3.57;;;2.90;;
29030;SDS011;16122;50.236;11.734;2023-02-28T16:37:04;2.73;;;2.53;;
29030;SDS011;16122;50.236;11.734;2023-02-28T16:39:35;2.57;;;2.37;;
29030;SDS011;16122;50.236;11.734;2023-02-28T16:42:01;2.63;;;2.43;;
29030;SDS011;16122;50.236;11.734;2023-02-28T16:44:33;3.20;;;2.30;;
29030;SDS011;16122;50.236;11.734;2023-02-28T16:47:01;3.50;;;2.70;;
29030;SDS011;16122;50.236;11.734;2023-02-28T16:49:28;3.20;;;2.90;;
29030;SDS011;16122;50.236;11.734;2023-02-28T16:51:54;2.77;;;2.57;;
29030;SDS011;16122;50.236;11.734;2023-02-28T16:54:20;3.50;;;2.73;;
29030;SDS011;16122;50.236;11.734;2023-02-28T16:56:46;2.70;;;2.50;;
29030;SDS011;16122;50.236;11.734;2023-02-28T16:59:14;2.63;;;2.40;;
29030;SDS011;16122;50.236;11.734;2023-02-28T17:01:44;7.87;;;2.90;;
29030;SDS011;16122;50.236;11.734;2023-02-28T17:04:10;3.20;;;2.70;;
29030;SDS011;16122;50.236;11.734;2023-02-28T17:06:36;4.43;;;2.80;;
29030;SDS011;16122;50.236;11.734;2023-02-28T17:09:03;2.50;;;2.30;;
29030;SDS011;16122;50.236;11.734;2023-02-28T17:11:29;4.07;;;2.87;;
29030;SDS011;16122;50.236;11.734;2023-02-28T17:13:55;4.27;;;2.80;;
29030;SDS011;16122;50.236;11.734;2023-02-28T17:16:31;3.27;;;3.00;;
29030;SDS011;16122;50.236;11.734;2023-02-28T17:18:59;3.30;;;3.00;;
29030;SDS011;16122;50.236;11.734;2023-02-28T17:21:26;3.07;;;2.77;;
29030;SDS011;16122;50.236;11.734;2023-02-28T17:23:53;2.60;;;2.40;;
29030;SDS011;16122;50.236;11.734;2023-02-28T17:26:19;2.70;;;2.50;;
29030;SDS011;16122;50.236;11.734;2023-02-28T17:28:47;3.00;;;2.77;;
29030;SDS011;16122;50.236;11.734;2023-02-28T17:31:14;3.43;;;2.77;;
29030;SDS011;16122;50.236;11.734;2023-02-28T17:33:40;3.37;;;2.73;;
29030;SDS011;16122;50.236;11.734;2023-02-28T17:36:06;3.10;;;2.83;;
29030;SDS011;16122;50.236;11.734;2023-02-28T17:38:38;4.80;;;3.33;;
29030;SDS011;16122;50.236;11.734;2023-02-28T17:41:04;5.17;;;3.30;;
29030;SDS011;16122;50.236;11.734;2023-02-28T17:43:30;3.40;;;3.10;;
29030;SDS011;16122;50.236;11.734;2023-02-28T17:45:56;4.53;;;2.90;;
29030;SDS011;16122;50.236;11.734;2023-02-28T17:48:23;3.20;;;2.80;;
29030;SDS011;16122;50.236;11.734;2023-02-28T17:50:49;3.37;;;2.90;;
29030;SDS011;16122;50.236;11.734;2023-02-28T17:53:16;4.63;;;3.60;;
29030;SDS011;16122;50.236;11.734;2023-02-28T17:55:42;3.77;;;3.27;;
29030;SDS011;16122;50.236;11.734;2023-02-28T17:58:09;2.93;;;2.70;;
29030;SDS011;16122;50.236;11.734;2023-02-28T18:00:39;3.03;;;2.80;;
29030;SDS011;16122;50.236;11.734;2023-02-28T18:03:04;3.00;;;2.70;;
29030;SDS011;16122;50.236;11.734;2023-02-28T18:05:31;3.73;;;3.30;;
29030;SDS011;16122;50.236;11.734;2023-02-28T18:07:57;5.03;;;3.40;;
29030;SDS011;16122;50.236;11.734;2023-02-28T18:10:23;4.07;;;3.53;;
29030;SDS011;16122;50.236;11.734;2023-02-28T18:12:50;3.93;;;3.20;;
29030;SDS011;16122;50.236;11.734;2023-02-28T18:15:17;3.70;;;2.97;;
29030;SDS011;16122;50.236;11.734;2023-02-28T18:17:48;5.47;;;3.47;;
29030;SDS011;16122;50.236;11.734;2023-02-28T18:20:14;6.47;;;2.90;;
29030;SDS011;16122;50.236;11.734;2023-02-28T18:22:41;5.10;;;3.37;;
29030;SDS011;16122;50.236;11.734;2023-02-28T18:25:07;3.20;;;2.90;;
29030;SDS011;16122;50.236;11.734;2023-02-28T18:27:38;6.00;;;3.40;;
29030;SDS011;16122;50.236;11.734;2023-02-28T18:30:05;3.07;;;2.77;;